Alva, Wyoming
Current Conditions -  °F | °C
As of 1:15 PM on Wednesday 26 Nov 2014 (Local Time) from KSPF Reporting Station
Unknown Precip Unknown Precip  
Wind Chill: 21°   Ceiling: 2200
Heat Index: 28°   Visibility: 10mi
Dew Point: 25°   Wind: 7mph
Humidity: 86%   Direction: 320°NW
Pressure: 30.2"   Gusts: NA
Location:  44.69°N, 104.44°W
Report Text: KSPF 262015Z AUTO 32006KT 10SM UP BKN022 OVC027 M02/M04 A3020 RMK AO2
Loading
Personal Weather Stations






























Interactive Weather Map New forecast layout! Learn more

10-Day Weather Forecast

Advertisements
Track Severe Weather on mobile